METAR Data
IDs: Format: Raw Decoded Include TAF

Data at: 0718 UTC 01 Aug 2021

ETWM 010620Z AUTO 23006KT //// // ////// 15/14 Q1007 ///